createdAt,value
2018-10-19T00:01:13.112Z,100193.00
2018-10-19T00:03:17.251Z,100192.00
2018-10-19T00:05:21.397Z,100193.00
2018-10-19T00:07:25.581Z,100189.00
2018-10-19T00:09:30.516Z,100188.00
2018-10-19T00:11:34.698Z,100185.00
2018-10-19T00:13:39.053Z,100185.00
2018-10-19T00:15:43.217Z,100187.00
2018-10-19T00:17:47.359Z,100175.00
2018-10-19T00:19:51.496Z,100182.00
2018-10-19T00:21:55.663Z,100180.00
2018-10-19T00:23:59.756Z,100179.00
2018-10-19T00:26:05.361Z,100181.00
2018-10-19T00:28:09.465Z,100178.00
2018-10-19T00:30:13.559Z,100188.00
2018-10-19T00:32:17.705Z,100182.00
2018-10-19T00:34:21.936Z,100183.00
2018-10-19T00:36:26.053Z,100177.00
2018-10-19T00:38:30.229Z,100172.00
2018-10-19T00:40:34.371Z,100176.00
2018-10-19T00:42:38.519Z,100171.00
2018-10-19T00:44:42.628Z,100165.00
2018-10-19T00:46:46.784Z,100164.00
2018-10-19T00:48:50.864Z,100165.00
2018-10-19T00:50:55.015Z,100167.00
2018-10-19T00:52:59.214Z,100170.00
2018-10-19T00:55:03.265Z,100159.00
2018-10-19T00:57:07.455Z,100161.00
2018-10-19T00:59:11.583Z,100167.00
2018-10-19T01:01:15.650Z,100163.00
2018-10-19T01:03:19.964Z,100164.00
2018-10-19T01:05:25.260Z,100172.00
2018-10-19T01:07:29.373Z,100175.00
2018-10-19T01:09:33.548Z,100170.00
2018-10-19T01:11:37.732Z,100172.00
2018-10-19T01:13:41.873Z,100163.00
2018-10-19T01:15:46.002Z,100166.00
2018-10-19T01:17:50.371Z,100165.00
2018-10-19T01:19:54.488Z,100170.00
2018-10-19T01:21:58.613Z,100168.00
2018-10-19T01:24:02.734Z,100168.00
2018-10-19T01:26:06.872Z,100170.00
2018-10-19T01:28:11.541Z,100158.00
2018-10-19T01:30:15.695Z,100155.00
2018-10-19T01:32:19.809Z,100162.00
2018-10-19T01:34:24.021Z,100156.00
2018-10-19T01:36:33.504Z,100161.00
2018-10-19T01:38:37.842Z,100158.00
2018-10-19T01:40:42.036Z,100163.00
2018-10-19T01:42:46.165Z,100159.00
2018-10-19T01:44:56.797Z,100164.00
2018-10-19T01:47:00.927Z,100154.00
2018-10-19T01:49:06.056Z,100157.00
2018-10-19T01:51:10.263Z,100161.00
2018-10-19T01:53:14.431Z,100163.00
2018-10-19T01:55:18.572Z,100161.00
2018-10-19T01:57:23.258Z,100164.00
2018-10-19T01:59:27.371Z,100156.00
2018-10-19T02:01:31.502Z,100164.00
2018-10-19T02:03:35.636Z,100174.00
2018-10-19T02:05:40.173Z,100156.00
2018-10-19T02:07:44.318Z,100170.00
2018-10-19T02:09:48.439Z,100159.00
2018-10-19T02:11:52.564Z,100167.00
2018-10-19T02:13:56.704Z,100172.00
2018-10-19T02:16:00.828Z,100171.00
2018-10-19T02:18:05.193Z,100172.00
2018-10-19T02:20:09.307Z,100172.00
2018-10-19T02:22:13.447Z,100175.00
2018-10-19T02:24:17.790Z,100171.00
2018-10-19T02:26:21.899Z,100165.00
2018-10-19T02:28:26.016Z,100178.00
2018-10-19T02:30:30.149Z,100177.00
2018-10-19T02:32:35.407Z,100179.00
2018-10-19T02:34:39.529Z,100182.00
2018-10-19T02:36:44.052Z,100178.00
2018-10-19T02:38:48.188Z,100188.00
2018-10-19T02:40:52.331Z,100178.00
2018-10-19T02:42:56.414Z,100169.00
2018-10-19T02:45:00.587Z,100168.00
2018-10-19T02:47:04.902Z,100166.00
2018-10-19T02:49:09.067Z,100165.00
2018-10-19T02:51:13.329Z,100162.00
2018-10-19T02:53:17.445Z,100171.00
2018-10-19T02:55:21.552Z,100169.00
2018-10-19T02:57:25.700Z,100166.00
2018-10-19T02:59:29.849Z,100159.00
2018-10-19T03:01:34.021Z,100172.00
2018-10-19T03:03:38.193Z,100170.00
2018-10-19T03:05:42.320Z,100176.00
2018-10-19T03:07:46.519Z,100172.00
2018-10-19T03:09:50.665Z,100177.00
2018-10-19T03:11:55.597Z,100170.00
2018-10-19T03:13:59.739Z,100179.00
2018-10-19T03:16:03.905Z,100175.00
2018-10-19T03:18:08.035Z,100173.00
2018-10-19T03:20:12.328Z,100178.00
2018-10-19T03:22:16.445Z,100174.00
2018-10-19T03:24:20.558Z,100169.00
2018-10-19T03:26:24.709Z,100173.00
2018-10-19T03:28:28.808Z,100167.00
2018-10-19T03:30:32.923Z,100163.00
2018-10-19T03:32:37.069Z,100160.00
2018-10-19T03:34:41.244Z,100154.00
2018-10-19T03:36:45.388Z,100162.00
2018-10-19T03:38:49.546Z,100156.00
2018-10-19T03:40:54.418Z,100157.00
2018-10-19T03:42:58.512Z,100162.00
2018-10-19T03:45:02.747Z,100161.00
2018-10-19T03:47:07.016Z,100161.00
2018-10-19T03:49:11.257Z,100164.00
2018-10-19T03:51:16.005Z,100168.00
2018-10-19T03:53:20.160Z,100165.00
2018-10-19T03:55:24.274Z,100166.00
2018-10-19T03:57:28.405Z,100166.00
2018-10-19T03:59:32.724Z,100174.00
2018-10-19T04:01:36.905Z,100170.00
2018-10-19T04:03:41.170Z,100171.00
2018-10-19T04:05:45.299Z,100157.00
2018-10-19T04:07:49.408Z,100174.00
2018-10-19T04:09:53.560Z,100170.00
2018-10-19T04:11:57.744Z,100172.00
2018-10-19T04:14:02.030Z,100172.00
2018-10-19T04:16:06.333Z,100174.00
2018-10-19T04:18:10.488Z,100183.00
2018-10-19T04:20:14.740Z,100178.00
2018-10-19T04:22:18.852Z,100180.00
2018-10-19T04:24:23.008Z,100178.00
2018-10-19T04:26:27.155Z,100171.00
2018-10-19T04:28:31.321Z,100186.00
2018-10-19T04:30:37.302Z,100183.00
2018-10-19T04:32:41.436Z,100178.00
2018-10-19T04:34:48.444Z,100176.00
2018-10-19T04:37:01.325Z,100175.00
2018-10-19T04:39:07.388Z,100179.00
2018-10-19T04:41:11.576Z,100186.00
2018-10-19T04:43:16.277Z,100181.00
2018-10-19T04:45:20.640Z,100178.00
2018-10-19T04:47:24.754Z,100181.00
2018-10-19T04:49:29.289Z,100171.00
2018-10-19T04:51:33.501Z,100167.00
2018-10-19T04:53:37.692Z,100175.00
2018-10-19T04:55:41.744Z,100166.00
2018-10-19T04:57:45.899Z,100178.00
2018-10-19T04:59:50.017Z,100178.00
2018-10-19T05:01:54.178Z,100192.00
2018-10-19T05:03:58.308Z,100200.00
2018-10-19T05:06:02.549Z,100192.00
2018-10-19T05:08:06.704Z,100196.00
2018-10-19T05:10:11.183Z,100193.00
2018-10-19T05:12:16.607Z,100188.00
2018-10-19T05:14:20.723Z,100188.00
2018-10-19T05:16:25.047Z,100191.00
2018-10-19T05:18:29.180Z,100189.00
2018-10-19T05:20:33.379Z,100188.00
2018-10-19T05:22:37.738Z,100193.00
2018-10-19T05:24:42.031Z,100188.00
2018-10-19T05:26:46.074Z,100198.00
2018-10-19T05:28:50.231Z,100198.00
2018-10-19T05:30:54.388Z,100187.00
2018-10-19T05:32:58.582Z,100181.00
2018-10-19T05:35:02.788Z,100185.00
2018-10-19T05:37:06.863Z,100176.00
2018-10-19T05:39:11.015Z,100184.00
2018-10-19T05:41:15.316Z,100184.00
2018-10-19T05:43:19.397Z,100187.00
2018-10-19T05:45:23.475Z,100183.00
2018-10-19T05:47:27.652Z,100184.00
2018-10-19T05:49:31.760Z,100193.00
2018-10-19T05:51:36.999Z,100203.00
2018-10-19T05:53:41.355Z,100205.00
2018-10-19T05:55:45.477Z,100206.00
2018-10-19T05:57:49.616Z,100210.00
2018-10-19T05:59:53.762Z,100207.00
2018-10-19T06:01:57.897Z,100201.00
2018-10-19T06:04:02.012Z,100210.00
2018-10-19T06:06:06.314Z,100212.00
2018-10-19T06:08:10.535Z,100206.00
2018-10-19T06:10:14.734Z,100207.00
2018-10-19T06:12:18.943Z,100206.00
2018-10-19T06:14:23.050Z,100220.00
2018-10-19T06:16:27.088Z,100213.00
2018-10-19T06:18:32.451Z,100214.00
2018-10-19T06:20:36.617Z,100213.00
2018-10-19T06:22:40.731Z,100221.00
2018-10-19T06:24:44.937Z,100209.00
2018-10-19T06:26:49.187Z,100226.00
2018-10-19T06:28:53.522Z,100235.00
2018-10-19T06:30:57.686Z,100224.00
2018-10-19T06:33:01.915Z,100218.00
2018-10-19T06:35:06.312Z,100227.00
2018-10-19T06:37:10.458Z,100231.00
2018-10-19T06:39:14.599Z,100233.00
2018-10-19T06:41:19.920Z,100232.00
2018-10-19T06:43:24.230Z,100227.00
2018-10-19T06:45:28.509Z,100222.00
2018-10-19T06:47:32.603Z,100220.00
2018-10-19T06:49:36.826Z,100221.00
2018-10-19T06:51:41.008Z,100219.00
2018-10-19T06:53:45.137Z,100229.00
2018-10-19T06:55:49.610Z,100230.00
2018-10-19T06:57:53.770Z,100226.00
2018-10-19T06:59:57.865Z,100230.00
2018-10-19T07:02:02.081Z,100241.00
2018-10-19T07:04:06.658Z,100225.00
2018-10-19T07:06:10.893Z,100231.00
2018-10-19T07:08:14.964Z,100236.00
2018-10-19T07:10:20.540Z,100231.00
2018-10-19T07:12:24.652Z,100236.00
2018-10-19T07:14:28.777Z,100229.00
2018-10-19T07:16:32.903Z,100229.00
2018-10-19T07:18:37.065Z,100222.00
2018-10-19T07:20:41.206Z,100232.00
2018-10-19T07:22:45.776Z,100229.00
2018-10-19T07:24:53.404Z,100228.00
2018-10-19T07:26:57.700Z,100233.00
2018-10-19T07:29:02.828Z,100230.00
2018-10-19T07:31:06.939Z,100237.00
2018-10-19T07:33:11.161Z,100235.00
2018-10-19T07:35:15.338Z,100239.00
2018-10-19T07:37:19.403Z,100231.00
2018-10-19T07:39:23.588Z,100235.00
2018-10-19T07:41:27.707Z,100236.00
2018-10-19T07:43:31.983Z,100246.00
2018-10-19T07:45:36.124Z,100244.00
2018-10-19T07:47:40.284Z,100249.00
2018-10-19T07:49:44.519Z,100252.00
2018-10-19T07:51:49.890Z,100240.00
2018-10-19T07:53:54.080Z,100255.00
2018-10-19T07:55:58.146Z,100251.00
2018-10-19T07:58:03.588Z,100246.00
2018-10-19T08:00:09.315Z,100260.00
2018-10-19T08:02:13.942Z,100259.00
2018-10-19T08:04:17.993Z,100263.00
2018-10-19T08:06:22.169Z,100260.00
2018-10-19T08:08:26.303Z,100264.00
2018-10-19T08:10:30.433Z,100264.00
2018-10-19T08:12:34.558Z,100260.00
2018-10-19T08:14:38.755Z,100249.00
2018-10-19T08:16:42.921Z,100254.00
2018-10-19T08:18:47.065Z,100266.00
2018-10-19T08:20:51.277Z,100262.00
2018-10-19T08:22:55.478Z,100263.00
2018-10-19T08:24:59.577Z,100263.00
2018-10-19T08:27:03.760Z,100270.00
2018-10-19T08:29:08.129Z,100272.00
2018-10-19T08:31:12.267Z,100275.00
2018-10-19T08:33:16.457Z,100277.00
2018-10-19T08:35:20.635Z,100280.00
2018-10-19T08:37:24.825Z,100282.00
2018-10-19T08:39:30.084Z,100285.00
2018-10-19T08:41:34.260Z,100279.00
2018-10-19T08:43:38.404Z,100277.00
2018-10-19T08:45:42.497Z,100277.00
2018-10-19T08:47:46.705Z,100286.00
2018-10-19T08:49:50.765Z,100282.00
2018-10-19T08:51:54.891Z,100274.00
2018-10-19T08:53:58.991Z,100267.00
2018-10-19T08:56:03.174Z,100272.00
2018-10-19T08:58:07.421Z,100275.00
2018-10-19T09:00:12.523Z,100273.00
2018-10-19T09:02:16.791Z,100275.00
2018-10-19T09:04:21.296Z,100271.00
2018-10-19T09:06:25.582Z,100266.00
2018-10-19T09:08:29.853Z,100264.00
2018-10-19T09:10:33.999Z,100276.00
2018-10-19T09:12:38.228Z,100269.00
2018-10-19T09:14:59.593Z,100282.00
2018-10-19T09:17:03.763Z,100273.00
2018-10-19T09:19:07.830Z,100265.00
2018-10-19T09:21:12.782Z,100268.00
2018-10-19T09:23:16.936Z,100269.00
2018-10-19T09:25:21.037Z,100270.00
2018-10-19T09:27:25.210Z,100269.00
2018-10-19T09:29:29.393Z,100261.00
2018-10-19T09:31:33.652Z,100263.00
2018-10-19T09:33:38.269Z,100261.00
2018-10-19T09:35:42.464Z,100253.00
2018-10-19T09:37:46.516Z,100256.00
2018-10-19T09:39:50.629Z,100270.00
2018-10-19T09:41:54.819Z,100266.00
2018-10-19T09:43:59.024Z,100265.00
2018-10-19T09:46:03.124Z,100262.00
2018-10-19T09:48:07.272Z,100263.00
2018-10-19T09:50:11.379Z,100259.00
2018-10-19T09:52:15.537Z,100258.00
2018-10-19T09:54:19.627Z,100257.00
2018-10-19T09:56:23.890Z,100259.00
2018-10-19T09:58:28.071Z,100251.00
2018-10-19T10:00:37.505Z,100260.00
2018-10-19T10:02:41.666Z,100249.00
2018-10-19T10:04:45.767Z,100247.00
2018-10-19T10:06:49.920Z,100254.00
2018-10-19T10:08:54.082Z,100244.00
2018-10-19T10:11:00.057Z,100250.00
2018-10-19T10:13:04.271Z,100244.00
2018-10-19T10:15:08.491Z,100243.00
2018-10-19T10:17:12.618Z,100234.00
2018-10-19T10:19:17.820Z,100233.00
2018-10-19T10:21:21.986Z,100236.00
2018-10-19T10:23:26.273Z,100233.00
2018-10-19T10:25:30.375Z,100236.00
2018-10-19T10:27:34.468Z,100239.00
2018-10-19T10:29:38.600Z,100238.00
2018-10-19T10:31:42.742Z,100240.00
2018-10-19T10:33:46.920Z,100238.00
2018-10-19T10:35:51.149Z,100226.00
2018-10-19T10:37:55.654Z,100223.00
2018-10-19T10:39:59.787Z,100221.00
2018-10-19T10:42:18.704Z,100222.00
2018-10-19T10:44:22.900Z,100223.00
2018-10-19T10:46:27.096Z,100218.00
2018-10-19T10:48:31.254Z,100219.00
2018-10-19T10:50:35.437Z,100215.00
2018-10-19T10:52:39.590Z,100206.00
2018-10-19T10:54:43.723Z,100215.00
2018-10-19T10:56:47.927Z,100206.00
2018-10-19T10:58:52.184Z,100202.00
2018-10-19T11:00:56.432Z,100196.00
2018-10-19T11:03:01.282Z,100191.00
2018-10-19T11:05:06.058Z,100189.00
2018-10-19T11:07:10.434Z,100190.00
2018-10-19T11:09:14.501Z,100184.00
2018-10-19T11:11:18.888Z,100179.00
2018-10-19T11:13:22.992Z,100180.00
2018-10-19T11:15:27.189Z,100186.00
2018-10-19T11:17:31.343Z,100182.00
2018-10-19T11:19:35.504Z,100179.00
2018-10-19T11:21:39.633Z,100179.00
2018-10-19T11:23:43.789Z,100177.00
2018-10-19T11:25:48.093Z,100184.00
2018-10-19T11:27:52.278Z,100175.00
2018-10-19T11:29:56.431Z,100168.00
2018-10-19T11:32:01.343Z,100171.00
2018-10-19T11:34:05.720Z,100167.00
2018-10-19T11:36:11.146Z,100174.00
2018-10-19T11:38:15.420Z,100171.00
2018-10-19T11:40:26.626Z,100167.00
2018-10-19T11:42:30.759Z,100179.00
2018-10-19T11:44:34.918Z,100170.00
2018-10-19T11:46:39.070Z,100173.00
2018-10-19T11:48:44.039Z,100179.00
2018-10-19T11:50:48.197Z,100179.00
2018-10-19T11:52:52.494Z,100179.00
2018-10-19T11:54:56.810Z,100175.00
2018-10-19T11:57:01.008Z,100174.00
2018-10-19T11:59:05.663Z,100160.00
2018-10-19T12:01:09.929Z,100166.00
2018-10-19T12:03:14.004Z,100157.00
2018-10-19T12:05:18.135Z,100160.00
2018-10-19T12:07:22.286Z,100165.00
2018-10-19T12:09:26.816Z,100163.00
2018-10-19T12:11:31.016Z,100166.00
2018-10-19T12:13:35.233Z,100160.00
2018-10-19T12:15:39.346Z,100158.00
2018-10-19T12:17:44.120Z,100160.00
2018-10-19T12:19:48.226Z,100166.00
2018-10-19T12:21:52.576Z,100162.00
2018-10-19T12:23:56.748Z,100170.00
2018-10-19T12:26:00.983Z,100173.00
2018-10-19T12:28:05.205Z,100171.00
2018-10-19T12:30:10.516Z,100171.00
2018-10-19T12:32:14.728Z,100169.00
2018-10-19T12:34:18.884Z,100170.00
2018-10-19T12:36:23.206Z,100176.00
2018-10-19T12:38:28.652Z,100168.00
2018-10-19T12:40:32.805Z,100165.00
2018-10-19T12:42:37.428Z,100160.00
2018-10-19T12:44:41.579Z,100171.00
2018-10-19T12:47:02.673Z,100163.00
2018-10-19T12:49:07.148Z,100170.00
2018-10-19T12:51:11.346Z,100167.00
2018-10-19T12:53:15.535Z,100162.00
2018-10-19T12:55:19.621Z,100166.00
2018-10-19T12:57:23.853Z,100158.00
2018-10-19T12:59:28.076Z,100154.00
2018-10-19T13:01:32.739Z,100157.00
2018-10-19T13:03:37.534Z,100154.00
2018-10-19T13:05:41.648Z,100157.00
2018-10-19T13:07:45.765Z,100163.00
2018-10-19T13:09:50.058Z,100163.00
2018-10-19T13:11:54.194Z,100161.00
2018-10-19T13:13:58.303Z,100154.00
2018-10-19T13:16:03.099Z,100147.00
2018-10-19T13:18:07.294Z,100145.00
2018-10-19T13:20:11.683Z,100145.00
2018-10-19T13:22:15.775Z,100142.00
2018-10-19T13:24:19.908Z,100146.00
2018-10-19T13:26:24.077Z,100146.00
2018-10-19T13:28:28.220Z,100140.00
2018-10-19T13:30:32.365Z,100138.00
2018-10-19T13:32:37.672Z,100136.00
2018-10-19T13:34:41.820Z,100133.00
2018-10-19T13:36:46.007Z,100139.00
2018-10-19T13:38:50.121Z,100141.00
2018-10-19T13:40:54.913Z,100144.00
2018-10-19T13:42:59.078Z,100143.00
2018-10-19T13:45:03.232Z,100139.00
2018-10-19T13:47:07.371Z,100141.00
2018-10-19T13:49:11.459Z,100142.00
2018-10-19T13:51:15.839Z,100143.00
2018-10-19T13:53:19.929Z,100132.00
2018-10-19T13:55:24.526Z,100131.00
2018-10-19T13:57:28.650Z,100130.00
2018-10-19T13:59:32.792Z,100133.00
2018-10-19T14:01:36.924Z,100127.00
2018-10-19T14:03:41.275Z,100125.00
2018-10-19T14:05:45.448Z,100127.00
2018-10-19T14:07:49.473Z,100131.00
2018-10-19T14:09:53.635Z,100132.00
2018-10-19T14:11:58.001Z,100122.00
2018-10-19T14:14:02.202Z,100118.00
2018-10-19T14:16:07.311Z,100120.00
2018-10-19T14:18:11.533Z,100119.00
2018-10-19T14:20:15.634Z,100119.00
2018-10-19T14:22:19.796Z,100109.00
2018-10-19T14:24:23.940Z,100110.00
2018-10-19T14:26:28.224Z,100115.00
2018-10-19T14:28:32.380Z,100110.00
2018-10-19T14:30:36.529Z,100108.00
2018-10-19T14:32:41.412Z,100102.00
2018-10-19T14:34:45.581Z,100113.00
2018-10-19T14:36:49.737Z,100119.00
2018-10-19T14:38:54.884Z,100117.00
2018-10-19T14:40:59.114Z,100115.00
2018-10-19T14:43:03.286Z,100116.00
2018-10-19T14:48:49.868Z,100131.00
2018-10-19T14:50:54.067Z,100127.00
2018-10-19T14:52:58.059Z,100127.00
2018-10-19T14:55:02.136Z,100119.00
2018-10-19T14:57:06.464Z,100120.00
2018-10-19T14:59:10.633Z,100121.00
2018-10-19T15:01:15.812Z,100117.00
2018-10-19T15:03:19.926Z,100116.00
2018-10-19T15:05:28.800Z,100123.00
2018-10-19T15:07:33.036Z,100123.00
2018-10-19T15:09:37.302Z,100121.00
2018-10-19T15:11:42.152Z,100119.00
2018-10-19T15:13:45.884Z,100130.00
2018-10-19T15:15:49.996Z,100126.00
2018-10-19T15:17:54.167Z,100116.00
2018-10-19T15:19:58.283Z,100119.00
2018-10-19T15:22:02.393Z,100119.00
2018-10-19T15:24:06.673Z,100124.00
2018-10-19T15:26:10.769Z,100123.00
2018-10-19T15:28:16.051Z,100121.00
2018-10-19T15:30:20.616Z,100116.00
2018-10-19T15:32:24.716Z,100125.00
2018-10-19T15:34:29.166Z,100127.00
2018-10-19T15:36:33.545Z,100114.00
2018-10-19T15:38:38.416Z,100128.00
2018-10-19T15:40:42.971Z,100124.00
2018-10-19T15:42:47.265Z,100128.00
2018-10-19T15:44:51.459Z,100133.00
2018-10-19T15:46:58.987Z,100130.00
2018-10-19T15:49:03.377Z,100135.00
2018-10-19T15:51:07.629Z,100133.00
2018-10-19T15:53:11.760Z,100139.00
2018-10-19T15:55:16.462Z,100142.00
2018-10-19T15:57:20.686Z,100138.00
2018-10-19T15:59:24.897Z,100137.00
2018-10-19T16:01:29.039Z,100148.00
2018-10-19T16:03:33.862Z,100150.00
2018-10-19T16:05:38.327Z,100160.00
2018-10-19T16:07:42.549Z,100159.00
2018-10-19T16:09:46.946Z,100154.00
2018-10-19T16:11:51.149Z,100162.00
2018-10-19T16:13:55.332Z,100159.00
2018-10-19T16:15:59.530Z,100167.00
2018-10-19T16:18:04.460Z,100157.00
2018-10-19T16:20:09.996Z,100162.00
2018-10-19T16:22:14.181Z,100164.00
2018-10-19T16:24:18.648Z,100157.00
2018-10-19T16:26:22.868Z,100167.00
2018-10-19T16:28:27.087Z,100166.00
2018-10-19T16:30:31.282Z,100172.00
2018-10-19T16:32:35.462Z,100173.00
2018-10-19T16:34:39.663Z,100169.00
2018-10-19T16:36:43.787Z,100179.00
2018-10-19T16:38:48.020Z,100178.00
2018-10-19T16:40:52.240Z,100183.00
2018-10-19T16:42:56.748Z,100180.00
2018-10-19T16:45:01.020Z,100189.00
2018-10-19T16:47:06.284Z,100193.00
2018-10-19T16:49:10.432Z,100198.00
2018-10-19T16:51:14.863Z,100193.00
2018-10-19T16:53:19.970Z,100207.00
2018-10-19T16:55:24.150Z,100197.00
2018-10-19T16:57:28.336Z,100198.00
2018-10-19T16:59:32.541Z,100203.00
2018-10-19T17:01:36.780Z,100210.00
2018-10-19T17:03:40.878Z,100214.00
2018-10-19T17:05:45.137Z,100214.00
2018-10-19T17:07:49.273Z,100207.00
2018-10-19T17:09:53.401Z,100210.00
2018-10-19T17:11:58.681Z,100214.00
2018-10-19T17:14:02.822Z,100203.00
2018-10-19T17:16:07.093Z,100211.00
2018-10-19T17:18:12.516Z,100208.00
2018-10-19T17:20:16.692Z,100214.00
2018-10-19T17:22:20.833Z,100213.00
2018-10-19T17:24:25.071Z,100210.00
2018-10-19T17:26:29.157Z,100207.00
2018-10-19T17:28:33.303Z,100212.00
2018-10-19T17:30:37.428Z,100217.00
2018-10-19T17:32:41.803Z,100217.00
2018-10-19T17:34:45.897Z,100222.00
2018-10-19T17:36:50.036Z,100221.00
2018-10-19T17:38:54.256Z,100226.00
2018-10-19T17:40:58.693Z,100223.00
2018-10-19T17:43:02.890Z,100232.00
2018-10-19T17:45:08.650Z,100237.00
2018-10-19T17:47:13.021Z,100238.00
2018-10-19T17:49:17.213Z,100250.00
2018-10-19T17:51:21.469Z,100252.00
2018-10-19T17:53:25.727Z,100250.00
2018-10-19T17:55:29.936Z,100248.00
2018-10-19T17:57:34.076Z,100262.00
2018-10-19T17:59:38.237Z,100264.00
2018-10-19T18:01:42.462Z,100259.00
2018-10-19T18:03:46.647Z,100256.00
2018-10-19T18:05:50.768Z,100260.00
2018-10-19T18:07:54.925Z,100265.00
2018-10-19T18:09:59.133Z,100271.00
2018-10-19T18:12:03.311Z,100273.00
2018-10-19T18:14:07.458Z,100267.00
2018-10-19T18:16:11.658Z,100276.00
2018-10-19T18:18:15.783Z,100279.00
2018-10-19T18:20:19.994Z,100280.00
2018-10-19T18:22:24.479Z,100276.00
2018-10-19T18:24:28.303Z,100267.00
2018-10-19T18:26:32.421Z,100280.00
2018-10-19T18:28:36.495Z,100269.00
2018-10-19T18:30:41.806Z,100274.00
2018-10-19T18:32:45.977Z,100265.00
2018-10-19T18:34:50.169Z,100261.00
2018-10-19T18:36:54.289Z,100267.00
2018-10-19T18:38:58.469Z,100267.00
2018-10-19T18:41:02.832Z,100275.00
2018-10-19T18:43:07.103Z,100271.00
2018-10-19T18:45:11.336Z,100276.00
2018-10-19T18:47:15.658Z,100274.00
2018-10-19T18:49:19.794Z,100281.00
2018-10-19T18:51:24.052Z,100289.00
2018-10-19T18:53:28.179Z,100290.00
2018-10-19T18:55:32.310Z,100292.00
2018-10-19T18:57:36.608Z,100298.00
2018-10-19T18:59:41.858Z,100299.00
2018-10-19T19:01:46.053Z,100301.00
2018-10-19T19:03:50.131Z,100304.00
2018-10-19T19:05:54.386Z,100311.00
2018-10-19T19:07:58.557Z,100310.00
2018-10-19T19:10:18.283Z,100311.00
2018-10-19T19:12:22.562Z,100316.00
2018-10-19T19:14:28.017Z,100317.00
2018-10-19T19:16:32.162Z,100319.00
2018-10-19T19:18:36.307Z,100325.00
2018-10-19T19:20:40.548Z,100324.00
2018-10-19T19:22:44.697Z,100318.00
2018-10-19T19:24:54.087Z,100320.00
2018-10-19T19:26:58.256Z,100322.00
2018-10-19T19:29:02.443Z,100322.00
2018-10-19T19:31:06.687Z,100321.00
2018-10-19T19:33:16.238Z,100319.00
2018-10-19T19:35:20.793Z,100320.00
2018-10-19T19:37:24.936Z,100319.00
2018-10-19T19:39:29.180Z,100314.00
2018-10-19T19:41:38.600Z,100335.00
2018-10-19T19:43:43.314Z,100335.00
2018-10-19T19:45:47.491Z,100340.00
2018-10-19T19:47:56.935Z,100335.00
2018-10-19T19:50:02.603Z,100345.00
2018-10-19T19:52:06.994Z,100342.00
2018-10-19T19:54:11.220Z,100344.00
2018-10-19T19:56:15.442Z,100338.00
2018-10-19T19:58:19.492Z,100341.00
2018-10-19T20:00:23.709Z,100344.00
2018-10-19T20:02:27.804Z,100335.00
2018-10-19T20:04:31.987Z,100347.00
2018-10-19T20:06:36.272Z,100343.00
2018-10-19T20:08:40.387Z,100341.00
2018-10-19T20:10:44.493Z,100340.00
2018-10-19T20:12:48.605Z,100342.00
2018-10-19T20:14:52.748Z,100335.00
2018-10-19T20:16:57.038Z,100320.00
2018-10-19T20:19:01.168Z,100326.00
2018-10-19T20:21:05.849Z,100332.00
2018-10-19T20:23:10.140Z,100334.00
2018-10-19T20:25:14.209Z,100331.00
2018-10-19T20:27:18.415Z,100323.00
2018-10-19T20:29:23.627Z,100336.00
2018-10-19T20:31:27.953Z,100344.00
2018-10-19T20:33:32.111Z,100338.00
2018-10-19T20:35:36.300Z,100332.00
2018-10-19T20:37:40.447Z,100332.00
2018-10-19T20:39:44.581Z,100343.00
2018-10-19T20:41:48.664Z,100339.00
2018-10-19T20:43:52.822Z,100335.00
2018-10-19T20:45:56.940Z,100339.00
2018-10-19T20:48:01.055Z,100346.00
2018-10-19T20:50:05.232Z,100349.00
2018-10-19T20:52:09.354Z,100347.00
2018-10-19T20:54:13.502Z,100334.00
2018-10-19T20:56:17.676Z,100338.00
2018-10-19T20:58:21.865Z,100342.00
2018-10-19T21:00:25.971Z,100341.00
2018-10-19T21:02:30.089Z,100336.00
2018-10-19T21:04:34.195Z,100337.00
2018-10-19T21:06:38.348Z,100345.00
2018-10-19T21:08:42.441Z,100341.00
2018-10-19T21:10:46.553Z,100347.00
2018-10-19T21:12:50.882Z,100341.00
2018-10-19T21:14:55.041Z,100354.00
2018-10-19T21:16:59.395Z,100353.00
2018-10-19T21:19:04.111Z,100359.00
2018-10-19T21:21:08.585Z,100361.00
2018-10-19T21:23:12.845Z,100370.00
2018-10-19T21:25:16.991Z,100370.00
2018-10-19T21:27:21.208Z,100372.00
2018-10-19T21:29:25.409Z,100377.00
2018-10-19T21:31:29.489Z,100363.00
2018-10-19T21:33:33.680Z,100367.00
2018-10-19T21:35:37.914Z,100367.00
2018-10-19T21:37:42.093Z,100372.00
2018-10-19T21:39:46.248Z,100372.00
2018-10-19T21:41:50.365Z,100369.00
2018-10-19T21:43:54.549Z,100376.00
2018-10-19T21:45:58.766Z,100371.00
2018-10-19T21:48:02.854Z,100386.00
2018-10-19T21:50:08.125Z,100390.00
2018-10-19T21:52:12.227Z,100389.00
2018-10-19T21:54:16.856Z,100381.00
2018-10-19T21:56:21.028Z,100379.00
2018-10-19T21:58:25.173Z,100368.00
2018-10-19T22:00:29.255Z,100382.00
2018-10-19T22:02:33.412Z,100385.00
2018-10-19T22:04:37.559Z,100379.00
2018-10-19T22:06:41.657Z,100377.00
2018-10-19T22:08:46.753Z,100382.00
2018-10-19T22:10:50.911Z,100398.00
2018-10-19T22:12:55.163Z,100390.00
2018-10-19T22:14:59.243Z,100388.00
2018-10-19T22:17:04.750Z,100400.00
2018-10-19T22:19:09.895Z,100395.00
2018-10-19T22:21:14.029Z,100391.00
2018-10-19T22:23:18.188Z,100396.00
2018-10-19T22:25:22.332Z,100391.00
2018-10-19T22:27:26.396Z,100400.00
2018-10-19T22:29:30.557Z,100406.00
2018-10-19T22:31:34.848Z,100406.00
2018-10-19T22:33:38.993Z,100414.00
2018-10-19T22:35:43.808Z,100410.00
2018-10-19T22:37:47.929Z,100419.00
2018-10-19T22:39:52.529Z,100411.00
2018-10-19T22:41:56.619Z,100421.00
2018-10-19T22:44:00.774Z,100426.00
2018-10-19T22:46:04.916Z,100425.00
2018-10-19T22:48:09.123Z,100430.00
2018-10-19T22:50:13.244Z,100426.00
2018-10-19T22:52:17.295Z,100434.00
2018-10-19T22:54:21.433Z,100430.00
2018-10-19T22:56:25.592Z,100430.00
2018-10-19T22:58:29.707Z,100428.00
2018-10-19T23:00:33.865Z,100421.00
2018-10-19T23:02:37.971Z,100428.00
2018-10-19T23:04:42.101Z,100439.00
2018-10-19T23:06:46.353Z,100435.00
2018-10-19T23:08:50.413Z,100424.00
2018-10-19T23:10:54.524Z,100435.00
2018-10-19T23:12:58.681Z,100429.00
2018-10-19T23:15:02.733Z,100429.00
2018-10-19T23:17:06.913Z,100444.00
2018-10-19T23:19:11.058Z,100449.00
2018-10-19T23:21:15.115Z,100451.00
2018-10-19T23:23:19.229Z,100453.00
2018-10-19T23:25:23.363Z,100453.00
2018-10-19T23:27:27.484Z,100452.00
2018-10-19T23:29:31.640Z,100448.00
2018-10-19T23:31:35.834Z,100455.00
2018-10-19T23:33:39.856Z,100451.00
2018-10-19T23:35:45.199Z,100455.00
2018-10-19T23:37:49.376Z,100450.00
2018-10-19T23:39:53.491Z,100445.00
2018-10-19T23:41:57.609Z,100450.00
2018-10-19T23:44:01.733Z,100449.00